TAM3469 SBEG-SBGR
Flight info
| Callsign | TAM3469 |
|---|---|
| Flight time | 3h 36m |
| Altitude | 37000 |
| Route | GIKVI UM417 UMGUP DCT MATNAUZ87 OBLUG UZ42 ZARES |
| Aircraft | A320/M-SDE3FGHIRWY/LB1 |
Departure
| Time | 2026-04-16 18:06 |
|---|---|
| Airport | Eduardo Gomes International Airport (SBEG) |
Arrival
| Time | 2026-04-16 21:42 |
|---|---|
| Airport | São Paulo/Guarulhos–Governor André Franco Montoro International Airport (SBGR) |
| Time | Latitude | Longitude | Altitude | Speed | Heading |
|---|---|---|---|---|---|
| 2026-04-16 17:14 | -3.03277 | -60.04581 | 269 ft | 0 kts | 357° |
| 2026-04-16 17:55 | -3.03278 | -60.04581 | 267 ft | 1 kts | 357° |
| 2026-04-16 17:56 | -3.03292 | -60.04581 | 268 ft | 2 kts | 356° |
| 2026-04-16 17:56 | -3.03307 | -60.04579 | 268 ft | 2 kts | 357° |
| 2026-04-16 17:56 | -3.03332 | -60.04578 | 268 ft | 1 kts | 357° |
| 2026-04-16 17:57 | -3.03346 | -60.04574 | 268 ft | 2 kts | 316° |
| 2026-04-16 17:57 | -3.03354 | -60.04561 | 268 ft | 2 kts | 278° |
| 2026-04-16 17:57 | -3.03354 | -60.04554 | 268 ft | 1 kts | 258° |
| 2026-04-16 17:57 | -3.03353 | -60.04549 | 268 ft | 0 kts | 265° |
| 2026-04-16 17:59 | -3.03353 | -60.04550 | 268 ft | 0 kts | 265° |
| 2026-04-16 17:59 | -3.03354 | -60.04562 | 268 ft | 3 kts | 267° |
| 2026-04-16 17:59 | -3.03355 | -60.04597 | 268 ft | 6 kts | 271° |
| 2026-04-16 18:00 | -3.03352 | -60.04653 | 268 ft | 9 kts | 271° |
| 2026-04-16 18:00 | -3.03359 | -60.04728 | 268 ft | 12 kts | 257° |
| 2026-04-16 18:00 | -3.03398 | -60.04810 | 268 ft | 13 kts | 234° |
| 2026-04-16 18:00 | -3.03468 | -60.04876 | 268 ft | 14 kts | 215° |
| 2026-04-16 18:01 | -3.03541 | -60.04942 | 268 ft | 14 kts | 231° |
| 2026-04-16 18:01 | -3.03587 | -60.05032 | 268 ft | 14 kts | 252° |
| 2026-04-16 18:01 | -3.03614 | -60.05131 | 268 ft | 14 kts | 255° |
| 2026-04-16 18:01 | -3.03641 | -60.05232 | 268 ft | 15 kts | 255° |
| 2026-04-16 18:02 | -3.03667 | -60.05335 | 268 ft | 15 kts | 257° |
| 2026-04-16 18:02 | -3.03685 | -60.05444 | 268 ft | 16 kts | 264° |
| 2026-04-16 18:02 | -3.03691 | -60.05558 | 268 ft | 16 kts | 270° |
| 2026-04-16 18:02 | -3.03691 | -60.05675 | 268 ft | 16 kts | 270° |
| 2026-04-16 18:03 | -3.03690 | -60.05794 | 268 ft | 17 kts | 270° |
| 2026-04-16 18:03 | -3.03690 | -60.05914 | 268 ft | 17 kts | 270° |
| 2026-04-16 18:03 | -3.03689 | -60.06037 | 268 ft | 17 kts | 271° |
| 2026-04-16 18:03 | -3.03716 | -60.06150 | 268 ft | 16 kts | 226° |
| 2026-04-16 18:04 | -3.03816 | -60.06175 | 268 ft | 11 kts | 180° |
| 2026-04-16 18:04 | -3.03855 | -60.06169 | 268 ft | 4 kts | 131° |
| 2026-04-16 18:04 | -3.03859 | -60.06150 | 268 ft | 0 kts | 90° |
| 2026-04-16 18:04 | -3.03859 | -60.06146 | 268 ft | 1 kts | 90° |
| 2026-04-16 18:05 | -3.03858 | -60.06018 | 268 ft | 49 kts | 90° |
| 2026-04-16 18:05 | -3.03860 | -60.05457 | 268 ft | 112 kts | 90° |
| 2026-04-16 18:05 | -3.03864 | -60.04485 | 269 ft | 165 kts | 90° |
| 2026-04-16 18:05 | -3.03885 | -60.03286 | 689 ft | 173 kts | 89° |
| 2026-04-16 18:06 | -3.03891 | -60.02087 | 1049 ft | 179 kts | 88° |
| 2026-04-16 18:06 | -3.03888 | -60.00767 | 1235 ft | 199 kts | 89° |
| 2026-04-16 18:06 | -3.03888 | -59.99308 | 1423 ft | 220 kts | 89° |
| 2026-04-16 18:06 | -3.03896 | -59.97682 | 1534 ft | 246 kts | 89° |
| 2026-04-16 18:07 | -3.03966 | -59.95912 | 1890 ft | 262 kts | 99° |
| 2026-04-16 18:07 | -3.04763 | -59.94304 | 2443 ft | 269 kts | 135° |
| 2026-04-16 18:07 | -3.06335 | -59.93286 | 3102 ft | 271 kts | 153° |
| 2026-04-16 18:07 | -3.08050 | -59.92472 | 3733 ft | 274 kts | 153° |
| 2026-04-16 18:08 | -3.09776 | -59.91635 | 4379 ft | 277 kts | 152° |
| 2026-04-16 18:08 | -3.11502 | -59.90757 | 5032 ft | 279 kts | 150° |
| 2026-04-16 18:08 | -3.13226 | -59.89846 | 5717 ft | 282 kts | 149° |
| 2026-04-16 18:08 | -3.14954 | -59.88910 | 6429 ft | 284 kts | 149° |
| 2026-04-16 18:09 | -3.16691 | -59.87960 | 7133 ft | 286 kts | 149° |
| 2026-04-16 18:09 | -3.18437 | -59.86998 | 7827 ft | 288 kts | 149° |
| 2026-04-16 18:09 | -3.20196 | -59.86024 | 8495 ft | 290 kts | 149° |
| 2026-04-16 18:09 | -3.21971 | -59.85040 | 9161 ft | 293 kts | 149° |
| 2026-04-16 18:10 | -3.23760 | -59.84048 | 9819 ft | 295 kts | 149° |
| 2026-04-16 18:10 | -3.25573 | -59.83042 | 10354 ft | 302 kts | 149° |
| 2026-04-16 18:10 | -3.27447 | -59.82000 | 10839 ft | 311 kts | 149° |
| 2026-04-16 18:10 | -3.29352 | -59.80943 | 11438 ft | 314 kts | 149° |
| 2026-04-16 18:11 | -3.31273 | -59.79877 | 12067 ft | 316 kts | 149° |
| 2026-04-16 18:11 | -3.33180 | -59.78820 | 12659 ft | 319 kts | 149° |
| 2026-04-16 18:11 | -3.35129 | -59.77737 | 13220 ft | 321 kts | 149° |
| 2026-04-16 18:11 | -3.37094 | -59.76645 | 13783 ft | 324 kts | 149° |
| 2026-04-16 18:12 | -3.39074 | -59.75546 | 14320 ft | 326 kts | 149° |
| 2026-04-16 18:12 | -3.41068 | -59.74437 | 14834 ft | 329 kts | 149° |
| 2026-04-16 18:12 | -3.43079 | -59.73320 | 15342 ft | 331 kts | 149° |
| 2026-04-16 18:12 | -3.45102 | -59.72196 | 15840 ft | 333 kts | 149° |
| 2026-04-16 18:13 | -3.47138 | -59.71065 | 16326 ft | 335 kts | 149° |
| 2026-04-16 18:13 | -3.49187 | -59.69926 | 16797 ft | 337 kts | 149° |
| 2026-04-16 18:13 | -3.51245 | -59.68773 | 17262 ft | 339 kts | 148° |
| 2026-04-16 18:13 | -3.53230 | -59.67485 | 17708 ft | 340 kts | 142° |
| 2026-04-16 18:14 | -3.55097 | -59.66018 | 18150 ft | 341 kts | 138° |
| 2026-04-16 18:14 | -3.56881 | -59.64434 | 18575 ft | 343 kts | 137° |
| 2026-04-16 18:14 | -3.58660 | -59.62826 | 18987 ft | 345 kts | 137° |
| 2026-04-16 18:14 | -3.60451 | -59.61204 | 19386 ft | 348 kts | 137° |
| 2026-04-16 18:15 | -3.62228 | -59.59595 | 19777 ft | 350 kts | 137° |
| 2026-04-16 18:15 | -3.64043 | -59.57954 | 20159 ft | 352 kts | 137° |
| 2026-04-16 18:15 | -3.65870 | -59.56303 | 20536 ft | 354 kts | 137° |
| 2026-04-16 18:15 | -3.67710 | -59.54641 | 20910 ft | 357 kts | 137° |
| 2026-04-16 18:16 | -3.69561 | -59.52969 | 21263 ft | 359 kts | 137° |
| 2026-04-16 18:16 | -3.71424 | -59.51287 | 21620 ft | 361 kts | 137° |
| 2026-04-16 18:16 | -3.73301 | -59.49592 | 21953 ft | 364 kts | 137° |
| 2026-04-16 18:16 | -3.75191 | -59.47886 | 22286 ft | 366 kts | 137° |
| 2026-04-16 18:17 | -3.77092 | -59.46169 | 22632 ft | 368 kts | 138° |
| 2026-04-16 18:17 | -3.79004 | -59.44442 | 22970 ft | 371 kts | 138° |
| 2026-04-16 18:17 | -3.80926 | -59.42707 | 23315 ft | 372 kts | 138° |
| 2026-04-16 18:17 | -3.82859 | -59.40962 | 23639 ft | 375 kts | 138° |
| 2026-04-16 18:18 | -3.84804 | -59.39205 | 23961 ft | 377 kts | 137° |
| 2026-04-16 18:18 | -3.86758 | -59.37439 | 24294 ft | 379 kts | 137° |
| 2026-04-16 18:18 | -3.88722 | -59.35665 | 24612 ft | 381 kts | 137° |
| 2026-04-16 18:18 | -3.90697 | -59.33881 | 24924 ft | 383 kts | 137° |
| 2026-04-16 18:19 | -3.92654 | -59.32111 | 25225 ft | 385 kts | 137° |
| 2026-04-16 18:19 | -3.94650 | -59.30307 | 25515 ft | 387 kts | 137° |
| 2026-04-16 18:19 | -3.96657 | -59.28493 | 25805 ft | 389 kts | 137° |
| 2026-04-16 18:19 | -3.98677 | -59.26667 | 26087 ft | 391 kts | 137° |
| 2026-04-16 18:20 | -4.00706 | -59.24832 | 26367 ft | 393 kts | 137° |
| 2026-04-16 18:20 | -4.02746 | -59.22989 | 26659 ft | 395 kts | 138° |
| 2026-04-16 18:20 | -4.04793 | -59.21138 | 26947 ft | 397 kts | 137° |
| 2026-04-16 18:20 | -4.06849 | -59.19279 | 27227 ft | 398 kts | 137° |
| 2026-04-16 18:21 | -4.08915 | -59.17412 | 27487 ft | 400 kts | 137° |
| 2026-04-16 18:21 | -4.10990 | -59.15537 | 27753 ft | 402 kts | 137° |
| 2026-04-16 18:21 | -4.13075 | -59.13651 | 28024 ft | 404 kts | 137° |
| 2026-04-16 18:21 | -4.15167 | -59.11759 | 28300 ft | 405 kts | 137° |
| 2026-04-16 18:22 | -4.17266 | -59.09860 | 28558 ft | 407 kts | 137° |
| 2026-04-16 18:22 | -4.19375 | -59.07951 | 28816 ft | 409 kts | 137° |
| 2026-04-16 18:22 | -4.21492 | -59.06035 | 29083 ft | 410 kts | 137° |
| 2026-04-16 18:22 | -4.23617 | -59.04112 | 29343 ft | 412 kts | 137° |
| 2026-04-16 18:23 | -4.25752 | -59.02180 | 29586 ft | 414 kts | 137° |
| 2026-04-16 18:23 | -4.27864 | -59.00267 | 29839 ft | 415 kts | 137° |
| 2026-04-16 18:23 | -4.30013 | -58.98322 | 30092 ft | 416 kts | 137° |
| 2026-04-16 18:23 | -4.32169 | -58.96370 | 30342 ft | 418 kts | 137° |
| 2026-04-16 18:24 | -4.34333 | -58.94413 | 30583 ft | 419 kts | 137° |
| 2026-04-16 18:24 | -4.36502 | -58.92448 | 30837 ft | 420 kts | 137° |
| 2026-04-16 18:24 | -4.38677 | -58.90478 | 31085 ft | 421 kts | 137° |
| 2026-04-16 18:24 | -4.40857 | -58.88503 | 31324 ft | 422 kts | 137° |
| 2026-04-16 18:25 | -4.43044 | -58.86522 | 31567 ft | 423 kts | 137° |
| 2026-04-16 18:25 | -4.45236 | -58.84535 | 31796 ft | 425 kts | 137° |
| 2026-04-16 18:25 | -4.47433 | -58.82543 | 32034 ft | 426 kts | 137° |
| 2026-04-16 18:25 | -4.49636 | -58.80547 | 32250 ft | 427 kts | 138° |
| 2026-04-16 18:26 | -4.51860 | -58.78561 | 32453 ft | 429 kts | 140° |
| 2026-04-16 18:26 | -4.54188 | -58.76677 | 32673 ft | 430 kts | 143° |
| 2026-04-16 18:26 | -4.56624 | -58.74919 | 32896 ft | 431 kts | 146° |
| 2026-04-16 18:26 | -4.59163 | -58.73295 | 33103 ft | 433 kts | 149° |
| 2026-04-16 18:27 | -4.61797 | -58.71809 | 33320 ft | 434 kts | 152° |
| 2026-04-16 18:27 | -4.64472 | -58.70381 | 33545 ft | 435 kts | 152° |
| 2026-04-16 18:27 | -4.67161 | -58.68955 | 33756 ft | 437 kts | 152° |
| 2026-04-16 18:27 | -4.69822 | -58.67544 | 33941 ft | 439 kts | 152° |
| 2026-04-16 18:28 | -4.72532 | -58.66106 | 34139 ft | 440 kts | 152° |
| 2026-04-16 18:28 | -4.75246 | -58.64663 | 34393 ft | 440 kts | 152° |
| 2026-04-16 18:28 | -4.77956 | -58.63222 | 34693 ft | 439 kts | 152° |
| 2026-04-16 18:28 | -4.80656 | -58.61785 | 34991 ft | 438 kts | 152° |
| 2026-04-16 18:29 | -4.83354 | -58.60350 | 35206 ft | 438 kts | 152° |
| 2026-04-16 18:29 | -4.86060 | -58.58910 | 35354 ft | 440 kts | 152° |
| 2026-04-16 18:29 | -4.88776 | -58.57464 | 35503 ft | 441 kts | 152° |
| 2026-04-16 18:29 | -4.91498 | -58.56016 | 35674 ft | 442 kts | 153° |
| 2026-04-16 18:30 | -4.94223 | -58.54565 | 35854 ft | 442 kts | 153° |
| 2026-04-16 18:30 | -4.96950 | -58.53114 | 36019 ft | 443 kts | 153° |
| 2026-04-16 18:30 | -4.99679 | -58.51661 | 36162 ft | 443 kts | 153° |
| 2026-04-16 18:30 | -5.02414 | -58.50205 | 36293 ft | 444 kts | 153° |
| 2026-04-16 18:31 | -5.05150 | -58.48748 | 36416 ft | 445 kts | 153° |
| 2026-04-16 18:31 | -5.07894 | -58.47287 | 36530 ft | 446 kts | 153° |
| 2026-04-16 18:31 | -5.10643 | -58.45823 | 36634 ft | 446 kts | 153° |
| 2026-04-16 18:31 | -5.13356 | -58.44378 | 36744 ft | 447 kts | 153° |
| 2026-04-16 18:32 | -5.18898 | -58.41425 | 36763 ft | 452 kts | 153° |
| 2026-04-16 18:32 | -5.24483 | -58.38450 | 36764 ft | 454 kts | 153° |
| 2026-04-16 18:33 | -5.30066 | -58.35473 | 36765 ft | 453 kts | 153° |
| 2026-04-16 18:33 | -5.35642 | -58.32501 | 36767 ft | 452 kts | 153° |
| 2026-04-16 18:34 | -5.41211 | -58.29532 | 36769 ft | 452 kts | 153° |
| 2026-04-16 18:34 | -5.46776 | -58.26563 | 36772 ft | 452 kts | 153° |
| 2026-04-16 18:35 | -5.52336 | -58.23597 | 36774 ft | 452 kts | 153° |
| 2026-04-16 18:35 | -5.57863 | -58.20649 | 36779 ft | 452 kts | 153° |
| 2026-04-16 18:36 | -5.63429 | -58.17677 | 36787 ft | 452 kts | 153° |
| 2026-04-16 18:36 | -5.68999 | -58.14704 | 36791 ft | 452 kts | 153° |
| 2026-04-16 18:37 | -5.74561 | -58.11735 | 36793 ft | 451 kts | 152° |
| 2026-04-16 18:37 | -5.80116 | -58.08769 | 36793 ft | 451 kts | 152° |
| 2026-04-16 18:38 | -5.85658 | -58.05808 | 36793 ft | 449 kts | 152° |
| 2026-04-16 18:38 | -5.91187 | -58.02853 | 36794 ft | 449 kts | 152° |
| 2026-04-16 18:39 | -5.96720 | -57.99897 | 36796 ft | 450 kts | 152° |
| 2026-04-16 18:39 | -6.02221 | -57.96958 | 36797 ft | 450 kts | 152° |
| 2026-04-16 18:40 | -6.07758 | -57.93996 | 36797 ft | 450 kts | 152° |
| 2026-04-16 18:40 | -6.13295 | -57.91035 | 36794 ft | 449 kts | 152° |
| 2026-04-16 18:41 | -6.18830 | -57.88073 | 36792 ft | 449 kts | 152° |
| 2026-04-16 18:41 | -6.24368 | -57.85110 | 36783 ft | 449 kts | 152° |
| 2026-04-16 18:42 | -6.29884 | -57.82159 | 36774 ft | 449 kts | 152° |
| 2026-04-16 18:42 | -6.35398 | -57.79207 | 36769 ft | 449 kts | 152° |
| 2026-04-16 18:43 | -6.40923 | -57.76248 | 36771 ft | 449 kts | 152° |
| 2026-04-16 18:43 | -6.46452 | -57.73287 | 36777 ft | 449 kts | 152° |
| 2026-04-16 18:44 | -6.51975 | -57.70329 | 36783 ft | 449 kts | 152° |
| 2026-04-16 18:44 | -6.57497 | -57.67370 | 36785 ft | 448 kts | 152° |
| 2026-04-16 18:45 | -6.63012 | -57.64414 | 36788 ft | 448 kts | 152° |
| 2026-04-16 18:45 | -6.68518 | -57.61462 | 36792 ft | 447 kts | 152° |
| 2026-04-16 18:46 | -6.74026 | -57.58509 | 36794 ft | 447 kts | 152° |
| 2026-04-16 18:46 | -6.79533 | -57.55555 | 36797 ft | 448 kts | 152° |
| 2026-04-16 18:47 | -6.85044 | -57.52599 | 36799 ft | 447 kts | 152° |
| 2026-04-16 18:47 | -6.90514 | -57.49663 | 36803 ft | 448 kts | 152° |
| 2026-04-16 18:48 | -6.96021 | -57.46706 | 36803 ft | 447 kts | 152° |
| 2026-04-16 18:48 | -7.01513 | -57.43757 | 36804 ft | 446 kts | 152° |
| 2026-04-16 18:49 | -7.07004 | -57.40808 | 36812 ft | 447 kts | 152° |
| 2026-04-16 18:49 | -7.12502 | -57.37854 | 36821 ft | 446 kts | 152° |
| 2026-04-16 18:50 | -7.17996 | -57.34902 | 36826 ft | 447 kts | 152° |
| 2026-04-16 18:50 | -7.23500 | -57.31943 | 36830 ft | 447 kts | 152° |
| 2026-04-16 18:51 | -7.28966 | -57.29005 | 36830 ft | 447 kts | 152° |
| 2026-04-16 18:51 | -7.34475 | -57.26041 | 36823 ft | 448 kts | 152° |
| 2026-04-16 18:52 | -7.39991 | -57.23073 | 36817 ft | 448 kts | 152° |
| 2026-04-16 18:52 | -7.45502 | -57.20106 | 36814 ft | 448 kts | 152° |
| 2026-04-16 18:53 | -7.51011 | -57.17141 | 36813 ft | 448 kts | 152° |
| 2026-04-16 18:53 | -7.56528 | -57.14171 | 36816 ft | 449 kts | 152° |
| 2026-04-16 18:54 | -7.62047 | -57.11198 | 36817 ft | 449 kts | 152° |
| 2026-04-16 18:54 | -7.67572 | -57.08220 | 36825 ft | 449 kts | 152° |
| 2026-04-16 18:55 | -7.73097 | -57.05241 | 36836 ft | 449 kts | 152° |
| 2026-04-16 18:55 | -7.78583 | -57.02283 | 36838 ft | 449 kts | 152° |
| 2026-04-16 18:56 | -7.84109 | -56.99303 | 36835 ft | 450 kts | 152° |
| 2026-04-16 18:56 | -7.89648 | -56.96313 | 36828 ft | 450 kts | 152° |
| 2026-04-16 18:57 | -7.95189 | -56.93319 | 36828 ft | 451 kts | 152° |
| 2026-04-16 18:58 | -8.03513 | -56.88828 | 36831 ft | 451 kts | 153° |
| 2026-04-16 18:58 | -8.09237 | -56.86205 | 36835 ft | 450 kts | 159° |
| 2026-04-16 18:59 | -8.15127 | -56.84125 | 36835 ft | 450 kts | 161° |
| 2026-04-16 18:59 | -8.21089 | -56.82106 | 36835 ft | 450 kts | 161° |
| 2026-04-16 19:00 | -8.27050 | -56.80087 | 36836 ft | 451 kts | 161° |
| 2026-04-16 19:00 | -8.33018 | -56.78060 | 36835 ft | 451 kts | 161° |
| 2026-04-16 19:01 | -8.38988 | -56.76030 | 36835 ft | 451 kts | 161° |
| 2026-04-16 19:01 | -8.44963 | -56.73997 | 36834 ft | 452 kts | 161° |
| 2026-04-16 19:02 | -8.50937 | -56.71963 | 36832 ft | 452 kts | 161° |
| 2026-04-16 19:02 | -8.56925 | -56.69925 | 36825 ft | 453 kts | 161° |
| 2026-04-16 19:03 | -8.62869 | -56.67902 | 36818 ft | 453 kts | 161° |
| 2026-04-16 19:03 | -8.68855 | -56.65863 | 36810 ft | 453 kts | 161° |
| 2026-04-16 19:04 | -8.74846 | -56.63820 | 36800 ft | 453 kts | 161° |
| 2026-04-16 19:04 | -8.80838 | -56.61778 | 36799 ft | 453 kts | 161° |
| 2026-04-16 19:05 | -8.86830 | -56.59734 | 36798 ft | 453 kts | 161° |
| 2026-04-16 19:05 | -8.92820 | -56.57691 | 36792 ft | 453 kts | 161° |
| 2026-04-16 19:06 | -8.98818 | -56.55645 | 36799 ft | 454 kts | 161° |
| 2026-04-16 19:06 | -9.04828 | -56.53593 | 36802 ft | 455 kts | 161° |
| 2026-04-16 19:07 | -9.10804 | -56.51552 | 36801 ft | 455 kts | 161° |
| 2026-04-16 19:07 | -9.16816 | -56.49498 | 36799 ft | 454 kts | 161° |
| 2026-04-16 19:08 | -9.22822 | -56.47445 | 36792 ft | 454 kts | 161° |
| 2026-04-16 19:08 | -9.28822 | -56.45393 | 36788 ft | 454 kts | 161° |
| 2026-04-16 19:09 | -9.34828 | -56.43339 | 36790 ft | 454 kts | 161° |
| 2026-04-16 19:09 | -9.40840 | -56.41282 | 36793 ft | 455 kts | 161° |
| 2026-04-16 19:10 | -9.46853 | -56.39223 | 36791 ft | 455 kts | 161° |
| 2026-04-16 19:10 | -9.52868 | -56.37163 | 36789 ft | 455 kts | 161° |
| 2026-04-16 19:11 | -9.58843 | -56.35115 | 36792 ft | 455 kts | 161° |
| 2026-04-16 19:11 | -9.64856 | -56.33052 | 36800 ft | 455 kts | 161° |
| 2026-04-16 19:12 | -9.70830 | -56.30886 | 36806 ft | 455 kts | 158° |
| 2026-04-16 19:12 | -9.76570 | -56.28136 | 36817 ft | 455 kts | 152° |
| 2026-04-16 19:13 | -9.82150 | -56.25053 | 36819 ft | 456 kts | 152° |
| 2026-04-16 19:13 | -9.87726 | -56.21953 | 36824 ft | 456 kts | 152° |
| 2026-04-16 19:14 | -9.93308 | -56.18853 | 36831 ft | 456 kts | 152° |
| 2026-04-16 19:14 | -9.98892 | -56.15754 | 36831 ft | 457 kts | 152° |
| 2026-04-16 19:15 | -10.04439 | -56.12674 | 36834 ft | 457 kts | 152° |
| 2026-04-16 19:15 | -10.10024 | -56.09572 | 36834 ft | 457 kts | 152° |
| 2026-04-16 19:16 | -10.15612 | -56.06466 | 36833 ft | 457 kts | 152° |
| 2026-04-16 19:16 | -10.21203 | -56.03359 | 36830 ft | 457 kts | 152° |
| 2026-04-16 19:17 | -10.26795 | -56.00249 | 36827 ft | 457 kts | 152° |
| 2026-04-16 19:17 | -10.32391 | -55.97136 | 36819 ft | 457 kts | 152° |
| 2026-04-16 19:18 | -10.37984 | -55.94024 | 36815 ft | 457 kts | 152° |
| 2026-04-16 19:18 | -10.43574 | -55.90911 | 36818 ft | 457 kts | 152° |
| 2026-04-16 19:19 | -10.49128 | -55.87818 | 36819 ft | 457 kts | 152° |
| 2026-04-16 19:19 | -10.54723 | -55.84701 | 36821 ft | 458 kts | 152° |
| 2026-04-16 19:20 | -10.60318 | -55.81582 | 36825 ft | 458 kts | 152° |
| 2026-04-16 19:20 | -10.65915 | -55.78462 | 36831 ft | 458 kts | 152° |
| 2026-04-16 19:21 | -10.71511 | -55.75339 | 36836 ft | 458 kts | 152° |
| 2026-04-16 19:21 | -10.77104 | -55.72217 | 36839 ft | 458 kts | 152° |
| 2026-04-16 19:22 | -10.82698 | -55.69093 | 36839 ft | 458 kts | 152° |
| 2026-04-16 19:22 | -10.88295 | -55.65965 | 36838 ft | 458 kts | 152° |
| 2026-04-16 19:23 | -10.93858 | -55.62855 | 36835 ft | 458 kts | 152° |
| 2026-04-16 19:23 | -10.99468 | -55.59719 | 36830 ft | 459 kts | 152° |
| 2026-04-16 19:24 | -11.05079 | -55.56580 | 36826 ft | 459 kts | 152° |
| 2026-04-16 19:24 | -11.10698 | -55.53434 | 36828 ft | 460 kts | 152° |
| 2026-04-16 19:25 | -11.16313 | -55.50286 | 36828 ft | 459 kts | 152° |
| 2026-04-16 19:25 | -11.21926 | -55.47140 | 36829 ft | 459 kts | 152° |
| 2026-04-16 19:26 | -11.27607 | -55.44136 | 36829 ft | 459 kts | 156° |
| 2026-04-16 19:26 | -11.33411 | -55.41386 | 36831 ft | 459 kts | 156° |
| 2026-04-16 19:27 | -11.39178 | -55.38660 | 36836 ft | 459 kts | 156° |
| 2026-04-16 19:27 | -11.44984 | -55.35909 | 36842 ft | 459 kts | 156° |
| 2026-04-16 19:28 | -11.50791 | -55.33155 | 36848 ft | 459 kts | 156° |
| 2026-04-16 19:28 | -11.56602 | -55.30395 | 36852 ft | 460 kts | 156° |
| 2026-04-16 19:29 | -11.62412 | -55.27633 | 36851 ft | 460 kts | 156° |
| 2026-04-16 19:29 | -11.68222 | -55.24869 | 36849 ft | 460 kts | 156° |
| 2026-04-16 19:30 | -11.74026 | -55.22099 | 36850 ft | 459 kts | 155° |
| 2026-04-16 19:30 | -11.79682 | -55.19014 | 36848 ft | 460 kts | 152° |
| 2026-04-16 19:31 | -11.85244 | -55.15845 | 36843 ft | 460 kts | 152° |
| 2026-04-16 19:31 | -11.90846 | -55.12650 | 36839 ft | 460 kts | 152° |
| 2026-04-16 19:32 | -11.96453 | -55.09454 | 36835 ft | 461 kts | 152° |
| 2026-04-16 19:32 | -12.02065 | -55.06255 | 36832 ft | 461 kts | 152° |
| 2026-04-16 19:33 | -12.07681 | -55.03051 | 36833 ft | 461 kts | 152° |
| 2026-04-16 19:33 | -12.13296 | -54.99847 | 36838 ft | 461 kts | 152° |
| 2026-04-16 19:34 | -12.18906 | -54.96643 | 36842 ft | 460 kts | 152° |
| 2026-04-16 19:34 | -12.24505 | -54.93444 | 36845 ft | 460 kts | 152° |
| 2026-04-16 19:35 | -12.30058 | -54.90271 | 36844 ft | 459 kts | 152° |
| 2026-04-16 19:35 | -12.35652 | -54.87071 | 36841 ft | 460 kts | 152° |
| 2026-04-16 19:36 | -12.41244 | -54.83868 | 36839 ft | 460 kts | 152° |
| 2026-04-16 19:36 | -12.46839 | -54.80669 | 36835 ft | 459 kts | 153° |
| 2026-04-16 19:37 | -12.52453 | -54.77509 | 36831 ft | 459 kts | 153° |
| 2026-04-16 19:37 | -12.58065 | -54.74348 | 36829 ft | 459 kts | 153° |
| 2026-04-16 19:38 | -12.63671 | -54.71187 | 36831 ft | 459 kts | 153° |
| 2026-04-16 19:38 | -12.69276 | -54.68030 | 36834 ft | 458 kts | 153° |
| 2026-04-16 19:39 | -12.74842 | -54.64892 | 36835 ft | 458 kts | 153° |
| 2026-04-16 19:39 | -12.80438 | -54.61731 | 36836 ft | 458 kts | 153° |
| 2026-04-16 19:40 | -12.86033 | -54.58568 | 36836 ft | 458 kts | 153° |
| 2026-04-16 19:40 | -12.91632 | -54.55416 | 36836 ft | 458 kts | 153° |
| 2026-04-16 19:41 | -12.97231 | -54.52267 | 36840 ft | 458 kts | 153° |
| 2026-04-16 19:41 | -13.02829 | -54.49112 | 36843 ft | 458 kts | 153° |
| 2026-04-16 19:42 | -13.08420 | -54.45957 | 36841 ft | 457 kts | 153° |
| 2026-04-16 19:42 | -13.13968 | -54.42825 | 36838 ft | 457 kts | 153° |
| 2026-04-16 19:43 | -13.19551 | -54.39670 | 36838 ft | 457 kts | 153° |
| 2026-04-16 19:43 | -13.25133 | -54.36515 | 36835 ft | 457 kts | 153° |
| 2026-04-16 19:44 | -13.30715 | -54.33357 | 36837 ft | 457 kts | 153° |
| 2026-04-16 19:44 | -13.36307 | -54.30193 | 36843 ft | 458 kts | 152° |
| 2026-04-16 19:45 | -13.41902 | -54.27025 | 36845 ft | 458 kts | 152° |
| 2026-04-16 19:45 | -13.47496 | -54.23856 | 36853 ft | 458 kts | 152° |
| 2026-04-16 19:46 | -13.53085 | -54.20688 | 36856 ft | 458 kts | 152° |
| 2026-04-16 19:46 | -13.58631 | -54.17542 | 36856 ft | 457 kts | 153° |
| 2026-04-16 19:47 | -13.64210 | -54.14377 | 36855 ft | 457 kts | 153° |
| 2026-04-16 19:47 | -13.69789 | -54.11209 | 36855 ft | 457 kts | 153° |
| 2026-04-16 19:48 | -13.75373 | -54.08039 | 36861 ft | 458 kts | 152° |
| 2026-04-16 19:48 | -13.80969 | -54.04857 | 36867 ft | 459 kts | 152° |
| 2026-04-16 19:49 | -13.86568 | -54.01673 | 36876 ft | 458 kts | 152° |
| 2026-04-16 19:49 | -13.92161 | -53.98490 | 36881 ft | 458 kts | 152° |
| 2026-04-16 19:50 | -13.97707 | -53.95332 | 36887 ft | 458 kts | 152° |
| 2026-04-16 19:50 | -14.03285 | -53.92153 | 36897 ft | 457 kts | 152° |
| 2026-04-16 19:51 | -14.08866 | -53.88973 | 36908 ft | 458 kts | 152° |
| 2026-04-16 19:51 | -14.14457 | -53.85783 | 36918 ft | 459 kts | 152° |
| 2026-04-16 19:52 | -14.20051 | -53.82589 | 36921 ft | 459 kts | 152° |
| 2026-04-16 19:52 | -14.25648 | -53.79391 | 36920 ft | 459 kts | 153° |
| 2026-04-16 19:53 | -14.31241 | -53.76195 | 36913 ft | 458 kts | 153° |
| 2026-04-16 19:53 | -14.36827 | -53.73000 | 36907 ft | 458 kts | 153° |
| 2026-04-16 19:54 | -14.42410 | -53.69914 | 36903 ft | 457 kts | 154° |
| 2026-04-16 19:54 | -14.48095 | -53.66943 | 36904 ft | 457 kts | 155° |
| 2026-04-16 19:55 | -14.53784 | -53.63970 | 36902 ft | 458 kts | 155° |
| 2026-04-16 19:55 | -14.59404 | -53.60834 | 36903 ft | 459 kts | 152° |
| 2026-04-16 19:56 | -14.64957 | -53.57549 | 36904 ft | 459 kts | 152° |
| 2026-04-16 19:56 | -14.70513 | -53.54253 | 36906 ft | 460 kts | 152° |
| 2026-04-16 19:57 | -14.76070 | -53.50959 | 36908 ft | 459 kts | 152° |
| 2026-04-16 19:57 | -14.81579 | -53.47693 | 36910 ft | 458 kts | 152° |
| 2026-04-16 19:58 | -14.87115 | -53.44408 | 36911 ft | 458 kts | 152° |
| 2026-04-16 19:58 | -14.92655 | -53.41119 | 36913 ft | 458 kts | 152° |
| 2026-04-16 19:59 | -14.98196 | -53.37824 | 36908 ft | 458 kts | 152° |
| 2026-04-16 19:59 | -15.03754 | -53.34550 | 36906 ft | 459 kts | 153° |
| 2026-04-16 20:00 | -15.12159 | -53.29734 | 36900 ft | 460 kts | 153° |
| 2026-04-16 20:00 | -15.17762 | -53.26512 | 36899 ft | 459 kts | 153° |
| 2026-04-16 20:01 | -15.23353 | -53.23289 | 36900 ft | 459 kts | 153° |
| 2026-04-16 20:01 | -15.28895 | -53.20091 | 36902 ft | 458 kts | 153° |
| 2026-04-16 20:02 | -15.34470 | -53.16872 | 36903 ft | 458 kts | 153° |
| 2026-04-16 20:02 | -15.40046 | -53.13649 | 36905 ft | 458 kts | 153° |
| 2026-04-16 20:03 | -15.45627 | -53.10420 | 36904 ft | 458 kts | 153° |
| 2026-04-16 20:03 | -15.51210 | -53.07195 | 36906 ft | 459 kts | 153° |
| 2026-04-16 20:04 | -15.56798 | -53.03960 | 36904 ft | 459 kts | 153° |
| 2026-04-16 20:04 | -15.62389 | -53.00716 | 36899 ft | 459 kts | 153° |
| 2026-04-16 20:05 | -15.67977 | -52.97472 | 36894 ft | 459 kts | 153° |
| 2026-04-16 20:05 | -15.73521 | -52.94254 | 36891 ft | 459 kts | 153° |
| 2026-04-16 20:06 | -15.79100 | -52.91013 | 36888 ft | 458 kts | 153° |
| 2026-04-16 20:06 | -15.84679 | -52.87767 | 36887 ft | 459 kts | 153° |
| 2026-04-16 20:07 | -15.90259 | -52.84519 | 36886 ft | 459 kts | 153° |
| 2026-04-16 20:07 | -15.95840 | -52.81269 | 36885 ft | 459 kts | 153° |
| 2026-04-16 20:08 | -16.01424 | -52.78014 | 36885 ft | 460 kts | 153° |
| 2026-04-16 20:08 | -16.07010 | -52.74757 | 36885 ft | 459 kts | 153° |
| 2026-04-16 20:09 | -16.12596 | -52.71496 | 36877 ft | 460 kts | 153° |
| 2026-04-16 20:09 | -16.18143 | -52.68259 | 36875 ft | 459 kts | 153° |
| 2026-04-16 20:10 | -16.23724 | -52.64998 | 36874 ft | 459 kts | 153° |
| 2026-04-16 20:10 | -16.29306 | -52.61734 | 36877 ft | 459 kts | 153° |
| 2026-04-16 20:11 | -16.34897 | -52.58463 | 36879 ft | 460 kts | 153° |
| 2026-04-16 20:11 | -16.40482 | -52.55193 | 36879 ft | 460 kts | 153° |
| 2026-04-16 20:12 | -16.46068 | -52.51918 | 36889 ft | 460 kts | 153° |
| 2026-04-16 20:12 | -16.51658 | -52.48640 | 36897 ft | 460 kts | 153° |
| 2026-04-16 20:13 | -16.57203 | -52.45383 | 36906 ft | 460 kts | 153° |
| 2026-04-16 20:13 | -16.62790 | -52.42102 | 36918 ft | 460 kts | 153° |
| 2026-04-16 20:14 | -16.68381 | -52.38823 | 36930 ft | 460 kts | 154° |
| 2026-04-16 20:14 | -16.73976 | -52.35549 | 36933 ft | 460 kts | 154° |
| 2026-04-16 20:15 | -16.79567 | -52.32273 | 36933 ft | 460 kts | 153° |
| 2026-04-16 20:15 | -16.85158 | -52.28990 | 36932 ft | 460 kts | 153° |
| 2026-04-16 20:16 | -16.90751 | -52.25703 | 36937 ft | 460 kts | 153° |
| 2026-04-16 20:16 | -16.96299 | -52.22439 | 36933 ft | 460 kts | 153° |
| 2026-04-16 20:17 | -17.01888 | -52.19147 | 36936 ft | 460 kts | 153° |
| 2026-04-16 20:17 | -17.07485 | -52.15865 | 36939 ft | 460 kts | 154° |
| 2026-04-16 20:18 | -17.13105 | -52.12624 | 36946 ft | 460 kts | 154° |
| 2026-04-16 20:18 | -17.18724 | -52.09377 | 36954 ft | 460 kts | 154° |
| 2026-04-16 20:19 | -17.24345 | -52.06123 | 36965 ft | 461 kts | 154° |
| 2026-04-16 20:19 | -17.29967 | -52.02866 | 36971 ft | 461 kts | 154° |
| 2026-04-16 20:20 | -17.35552 | -51.99626 | 36977 ft | 461 kts | 154° |
| 2026-04-16 20:20 | -17.41172 | -51.96363 | 36975 ft | 461 kts | 154° |
| 2026-04-16 20:21 | -17.46793 | -51.93097 | 36978 ft | 461 kts | 154° |
| 2026-04-16 20:21 | -17.52415 | -51.89829 | 36981 ft | 461 kts | 154° |
| 2026-04-16 20:22 | -17.58034 | -51.86559 | 36985 ft | 461 kts | 154° |
| 2026-04-16 20:22 | -17.63658 | -51.83283 | 36989 ft | 462 kts | 154° |
| 2026-04-16 20:23 | -17.69288 | -51.80003 | 36992 ft | 462 kts | 154° |
| 2026-04-16 20:23 | -17.74923 | -51.76716 | 36990 ft | 462 kts | 154° |
| 2026-04-16 20:24 | -17.80521 | -51.73448 | 36991 ft | 463 kts | 154° |
| 2026-04-16 20:24 | -17.86157 | -51.70158 | 36986 ft | 463 kts | 154° |
| 2026-04-16 20:25 | -17.91791 | -51.66864 | 36982 ft | 463 kts | 154° |
| 2026-04-16 20:25 | -17.97421 | -51.63572 | 36978 ft | 462 kts | 154° |
| 2026-04-16 20:26 | -18.03056 | -51.60275 | 36975 ft | 463 kts | 154° |
| 2026-04-16 20:26 | -18.08694 | -51.56971 | 36968 ft | 463 kts | 154° |
| 2026-04-16 20:27 | -18.14332 | -51.53663 | 36961 ft | 463 kts | 154° |
| 2026-04-16 20:27 | -18.19965 | -51.50355 | 36957 ft | 463 kts | 154° |
| 2026-04-16 20:28 | -18.25555 | -51.47071 | 36953 ft | 462 kts | 154° |
| 2026-04-16 20:28 | -18.31136 | -51.43664 | 36950 ft | 463 kts | 152° |
| 2026-04-16 20:29 | -18.36693 | -51.40203 | 36943 ft | 463 kts | 153° |
| 2026-04-16 20:29 | -18.42255 | -51.36749 | 36940 ft | 463 kts | 153° |
| 2026-04-16 20:30 | -18.47818 | -51.33300 | 36938 ft | 463 kts | 152° |
| 2026-04-16 20:30 | -18.53386 | -51.29850 | 36932 ft | 463 kts | 152° |
| 2026-04-16 20:31 | -18.58949 | -51.26403 | 36931 ft | 463 kts | 152° |
| 2026-04-16 20:31 | -18.64463 | -51.22982 | 36926 ft | 462 kts | 152° |
| 2026-04-16 20:32 | -18.70012 | -51.19533 | 36920 ft | 462 kts | 152° |
| 2026-04-16 20:32 | -18.75562 | -51.16081 | 36913 ft | 462 kts | 152° |
| 2026-04-16 20:33 | -18.81111 | -51.12626 | 36905 ft | 462 kts | 152° |
| 2026-04-16 20:33 | -18.86665 | -51.09166 | 36902 ft | 463 kts | 152° |
| 2026-04-16 20:34 | -18.92211 | -51.05705 | 36897 ft | 462 kts | 152° |
| 2026-04-16 20:34 | -18.97752 | -51.02244 | 36896 ft | 462 kts | 152° |
| 2026-04-16 20:35 | -19.03251 | -50.98781 | 36895 ft | 462 kts | 151° |
| 2026-04-16 20:35 | -19.08726 | -50.95198 | 36892 ft | 462 kts | 151° |
| 2026-04-16 20:36 | -19.14213 | -50.91594 | 36887 ft | 463 kts | 151° |
| 2026-04-16 20:36 | -19.19678 | -50.88009 | 36881 ft | 463 kts | 151° |
| 2026-04-16 20:37 | -19.25162 | -50.84412 | 36873 ft | 463 kts | 151° |
| 2026-04-16 20:37 | -19.30650 | -50.80809 | 36873 ft | 464 kts | 151° |
| 2026-04-16 20:38 | -19.36137 | -50.77206 | 36870 ft | 463 kts | 151° |
| 2026-04-16 20:38 | -19.41627 | -50.73597 | 36870 ft | 464 kts | 151° |
| 2026-04-16 20:39 | -19.47121 | -50.69982 | 36875 ft | 465 kts | 151° |
| 2026-04-16 20:39 | -19.52617 | -50.66363 | 36877 ft | 464 kts | 151° |
| 2026-04-16 20:40 | -19.58117 | -50.62737 | 36881 ft | 465 kts | 151° |
| 2026-04-16 20:40 | -19.63575 | -50.59135 | 36888 ft | 465 kts | 151° |
| 2026-04-16 20:41 | -19.69082 | -50.55534 | 36892 ft | 464 kts | 152° |
| 2026-04-16 20:41 | -19.74611 | -50.51980 | 36896 ft | 464 kts | 152° |
| 2026-04-16 20:42 | -19.80141 | -50.48419 | 36893 ft | 464 kts | 152° |
| 2026-04-16 20:42 | -19.85673 | -50.44846 | 36895 ft | 465 kts | 152° |
| 2026-04-16 20:43 | -19.91208 | -50.41266 | 36898 ft | 465 kts | 152° |
| 2026-04-16 20:43 | -19.96744 | -50.37680 | 36901 ft | 466 kts | 152° |
| 2026-04-16 20:44 | -20.02289 | -50.34086 | 36903 ft | 466 kts | 152° |
| 2026-04-16 20:44 | -20.07825 | -50.30493 | 36907 ft | 466 kts | 152° |
| 2026-04-16 20:45 | -20.13384 | -50.26998 | 36906 ft | 464 kts | 154° |
| 2026-04-16 20:45 | -20.19070 | -50.23634 | 36907 ft | 465 kts | 154° |
| 2026-04-16 20:46 | -20.24727 | -50.20289 | 36910 ft | 466 kts | 154° |
| 2026-04-16 20:46 | -20.30398 | -50.16927 | 36910 ft | 466 kts | 154° |
| 2026-04-16 20:47 | -20.36031 | -50.13583 | 36907 ft | 466 kts | 154° |
| 2026-04-16 20:47 | -20.41701 | -50.10212 | 36906 ft | 466 kts | 154° |
| 2026-04-16 20:48 | -20.47371 | -50.06836 | 36905 ft | 466 kts | 155° |
| 2026-04-16 20:48 | -20.53043 | -50.03457 | 36906 ft | 466 kts | 155° |
| 2026-04-16 20:49 | -20.58717 | -50.00076 | 36906 ft | 466 kts | 155° |
| 2026-04-16 20:49 | -20.64397 | -49.96686 | 36909 ft | 467 kts | 155° |
| 2026-04-16 20:50 | -20.70078 | -49.93294 | 36910 ft | 467 kts | 155° |
| 2026-04-16 20:50 | -20.75756 | -49.89900 | 36914 ft | 467 kts | 155° |
| 2026-04-16 20:51 | -20.81400 | -49.86525 | 36912 ft | 467 kts | 155° |
| 2026-04-16 20:51 | -20.87087 | -49.83120 | 36915 ft | 467 kts | 155° |
| 2026-04-16 20:52 | -20.92773 | -49.79711 | 36919 ft | 468 kts | 155° |
| 2026-04-16 20:52 | -20.98465 | -49.76298 | 36926 ft | 468 kts | 155° |
| 2026-04-16 20:53 | -21.04148 | -49.72886 | 36935 ft | 467 kts | 155° |
| 2026-04-16 20:53 | -21.09824 | -49.69477 | 36934 ft | 467 kts | 155° |
| 2026-04-16 20:54 | -21.15472 | -49.66079 | 36927 ft | 467 kts | 156° |
| 2026-04-16 20:54 | -21.21159 | -49.62657 | 36925 ft | 468 kts | 156° |
| 2026-04-16 20:55 | -21.26844 | -49.59232 | 36928 ft | 469 kts | 156° |
| 2026-04-16 20:55 | -21.32531 | -49.55803 | 36929 ft | 469 kts | 156° |
| 2026-04-16 20:56 | -21.38222 | -49.52369 | 36926 ft | 469 kts | 156° |
| 2026-04-16 20:56 | -21.43910 | -49.48931 | 36924 ft | 469 kts | 156° |
| 2026-04-16 20:57 | -21.49597 | -49.45493 | 36921 ft | 468 kts | 156° |
| 2026-04-16 20:57 | -21.55280 | -49.42054 | 36924 ft | 468 kts | 156° |
| 2026-04-16 20:58 | -21.60919 | -49.38636 | 36924 ft | 468 kts | 156° |
| 2026-04-16 20:58 | -21.66596 | -49.35195 | 36926 ft | 468 kts | 156° |
| 2026-04-16 20:59 | -21.72274 | -49.31749 | 36928 ft | 469 kts | 156° |
| 2026-04-16 20:59 | -21.78001 | -49.28272 | 36930 ft | 469 kts | 156° |
| 2026-04-16 21:00 | -21.83654 | -49.24833 | 36927 ft | 469 kts | 156° |
| 2026-04-16 21:00 | -21.89340 | -49.21370 | 36928 ft | 469 kts | 156° |
| 2026-04-16 21:01 | -21.95027 | -49.17903 | 36931 ft | 469 kts | 156° |
| 2026-04-16 21:01 | -22.00708 | -49.14438 | 36931 ft | 469 kts | 156° |
| 2026-04-16 21:02 | -22.06275 | -49.10707 | 36935 ft | 474 kts | 150° |
| 2026-04-16 21:03 | -22.13911 | -49.03791 | 36950 ft | 483 kts | 140° |
| 2026-04-16 21:03 | -22.18469 | -48.98390 | 36961 ft | 487 kts | 136° |
| 2026-04-16 21:04 | -22.22922 | -48.92861 | 36970 ft | 489 kts | 136° |
| 2026-04-16 21:04 | -22.27395 | -48.87363 | 36968 ft | 491 kts | 137° |
| 2026-04-16 21:05 | -22.31891 | -48.81799 | 36960 ft | 495 kts | 132° |
| 2026-04-16 21:05 | -22.35491 | -48.75391 | 36965 ft | 501 kts | 123° |
| 2026-04-16 21:06 | -22.38865 | -48.68808 | 36969 ft | 501 kts | 124° |
| 2026-04-16 21:06 | -22.42296 | -48.62263 | 36972 ft | 500 kts | 124° |
| 2026-04-16 21:07 | -22.45739 | -48.55766 | 36846 ft | 496 kts | 124° |
| 2026-04-16 21:07 | -22.47447 | -48.52544 | 36551 ft | 494 kts | 124° |
| 2026-04-16 21:07 | -22.49156 | -48.49323 | 36256 ft | 495 kts | 124° |
| 2026-04-16 21:07 | -22.50868 | -48.46105 | 35964 ft | 494 kts | 125° |
| 2026-04-16 21:08 | -22.52559 | -48.42940 | 35582 ft | 493 kts | 125° |
| 2026-04-16 21:08 | -22.54270 | -48.39729 | 35145 ft | 493 kts | 125° |
| 2026-04-16 21:08 | -22.55981 | -48.36518 | 34708 ft | 494 kts | 125° |
| 2026-04-16 21:08 | -22.57693 | -48.33297 | 34269 ft | 494 kts | 124° |
| 2026-04-16 21:09 | -22.59407 | -48.30066 | 33835 ft | 495 kts | 124° |
| 2026-04-16 21:09 | -22.61133 | -48.26812 | 33401 ft | 497 kts | 124° |
| 2026-04-16 21:09 | -22.62689 | -48.23872 | 33006 ft | 497 kts | 124° |
| 2026-04-16 21:09 | -22.64410 | -48.20624 | 32594 ft | 498 kts | 124° |
| 2026-04-16 21:10 | -22.66133 | -48.17369 | 32221 ft | 499 kts | 124° |
| 2026-04-16 21:10 | -22.67853 | -48.14116 | 31847 ft | 499 kts | 124° |
| 2026-04-16 21:10 | -22.69552 | -48.10900 | 31482 ft | 501 kts | 124° |
| 2026-04-16 21:10 | -22.71280 | -48.07626 | 31113 ft | 502 kts | 123° |
| 2026-04-16 21:11 | -22.73015 | -48.04343 | 30743 ft | 503 kts | 123° |
| 2026-04-16 21:11 | -22.74752 | -48.01051 | 30377 ft | 505 kts | 122° |
| 2026-04-16 21:11 | -22.76493 | -47.97745 | 30010 ft | 506 kts | 122° |
| 2026-04-16 21:11 | -22.78236 | -47.94433 | 29643 ft | 507 kts | 122° |
| 2026-04-16 21:12 | -22.79984 | -47.91115 | 29277 ft | 508 kts | 121° |
| 2026-04-16 21:12 | -22.81732 | -47.87793 | 28908 ft | 508 kts | 121° |
| 2026-04-16 21:12 | -22.83470 | -47.84484 | 28339 ft | 504 kts | 121° |
| 2026-04-16 21:12 | -22.85201 | -47.81190 | 27320 ft | 506 kts | 121° |
| 2026-04-16 21:13 | -22.86942 | -47.77877 | 26159 ft | 509 kts | 121° |
| 2026-04-16 21:13 | -22.88681 | -47.74564 | 25370 ft | 503 kts | 121° |
| 2026-04-16 21:13 | -22.90389 | -47.71305 | 24768 ft | 493 kts | 121° |
| 2026-04-16 21:13 | -22.92068 | -47.68098 | 24069 ft | 487 kts | 121° |
| 2026-04-16 21:14 | -22.93727 | -47.64930 | 23354 ft | 481 kts | 121° |
| 2026-04-16 21:14 | -22.95343 | -47.61841 | 22681 ft | 476 kts | 121° |
| 2026-04-16 21:14 | -22.96962 | -47.58744 | 22028 ft | 470 kts | 120° |
| 2026-04-16 21:14 | -22.98559 | -47.55685 | 21369 ft | 464 kts | 120° |
| 2026-04-16 21:15 | -23.00139 | -47.52658 | 20734 ft | 458 kts | 120° |
| 2026-04-16 21:15 | -23.01698 | -47.49672 | 20109 ft | 453 kts | 120° |
| 2026-04-16 21:15 | -23.03239 | -47.46718 | 19472 ft | 448 kts | 120° |
| 2026-04-16 21:15 | -23.04761 | -47.43798 | 18850 ft | 442 kts | 120° |
| 2026-04-16 21:16 | -23.06265 | -47.40913 | 18239 ft | 437 kts | 120° |
| 2026-04-16 21:16 | -23.07750 | -47.38066 | 17671 ft | 431 kts | 120° |
| 2026-04-16 21:16 | -23.09214 | -47.35257 | 17069 ft | 426 kts | 120° |
| 2026-04-16 21:16 | -23.10666 | -47.32467 | 16463 ft | 421 kts | 120° |
| 2026-04-16 21:17 | -23.12104 | -47.29698 | 15845 ft | 417 kts | 120° |
| 2026-04-16 21:17 | -23.13518 | -47.26976 | 15269 ft | 412 kts | 120° |
| 2026-04-16 21:17 | -23.14918 | -47.24279 | 14668 ft | 408 kts | 120° |
| 2026-04-16 21:17 | -23.16302 | -47.21613 | 14096 ft | 403 kts | 120° |
| 2026-04-16 21:18 | -23.17671 | -47.18972 | 13540 ft | 399 kts | 120° |
| 2026-04-16 21:18 | -23.19026 | -47.16362 | 12980 ft | 395 kts | 120° |
| 2026-04-16 21:18 | -23.20369 | -47.13778 | 12379 ft | 391 kts | 120° |
| 2026-04-16 21:18 | -23.21672 | -47.11266 | 11956 ft | 382 kts | 120° |
| 2026-04-16 21:19 | -23.22948 | -47.08800 | 11748 ft | 367 kts | 121° |
| 2026-04-16 21:19 | -23.24178 | -47.06424 | 11527 ft | 354 kts | 120° |
| 2026-04-16 21:19 | -23.25361 | -47.04135 | 11307 ft | 341 kts | 121° |
| 2026-04-16 21:19 | -23.26506 | -47.01921 | 11032 ft | 332 kts | 121° |
| 2026-04-16 21:20 | -23.27634 | -46.99742 | 10577 ft | 330 kts | 120° |
| 2026-04-16 21:20 | -23.28755 | -46.97574 | 10104 ft | 328 kts | 120° |
| 2026-04-16 21:20 | -23.29870 | -46.95414 | 9641 ft | 326 kts | 120° |
| 2026-04-16 21:20 | -23.30974 | -46.93276 | 9185 ft | 323 kts | 120° |
| 2026-04-16 21:21 | -23.32071 | -46.91151 | 8707 ft | 321 kts | 120° |
| 2026-04-16 21:21 | -23.32896 | -46.89557 | 8347 ft | 320 kts | 120° |
| 2026-04-16 21:21 | -23.33996 | -46.87425 | 7852 ft | 319 kts | 120° |
| 2026-04-16 21:21 | -23.35080 | -46.85324 | 7365 ft | 318 kts | 119° |
| 2026-04-16 21:22 | -23.36148 | -46.83252 | 6902 ft | 316 kts | 118° |
| 2026-04-16 21:22 | -23.37039 | -46.81521 | 6567 ft | 312 kts | 118° |
| 2026-04-16 21:22 | -23.38138 | -46.79381 | 6394 ft | 299 kts | 118° |
| 2026-04-16 21:22 | -23.39117 | -46.77474 | 6320 ft | 285 kts | 118° |
| 2026-04-16 21:23 | -23.40066 | -46.75626 | 6257 ft | 271 kts | 118° |
| 2026-04-16 21:23 | -23.40957 | -46.73890 | 6202 ft | 258 kts | 118° |
| 2026-04-16 21:23 | -23.41817 | -46.72214 | 6146 ft | 246 kts | 118° |
| 2026-04-16 21:23 | -23.42639 | -46.70622 | 6083 ft | 234 kts | 121° |
| 2026-04-16 21:24 | -23.43503 | -46.69177 | 6023 ft | 222 kts | 123° |
| 2026-04-16 21:24 | -23.44348 | -46.67836 | 5961 ft | 208 kts | 124° |
| 2026-04-16 21:24 | -23.44740 | -46.67218 | 5857 ft | 205 kts | 124° |
| 2026-04-16 21:25 | -23.46376 | -46.64630 | 5283 ft | 200 kts | 124° |
| 2026-04-16 21:25 | -23.47112 | -46.63260 | 5081 ft | 190 kts | 105° |
| 2026-04-16 21:25 | -23.47116 | -46.61887 | 4926 ft | 178 kts | 79° |
| 2026-04-16 21:25 | -23.46808 | -46.60618 | 4685 ft | 173 kts | 72° |
| 2026-04-16 21:26 | -23.46439 | -46.59377 | 4442 ft | 168 kts | 72° |
| 2026-04-16 21:26 | -23.46089 | -46.58176 | 4213 ft | 163 kts | 73° |
| 2026-04-16 21:26 | -23.45771 | -46.57029 | 3996 ft | 153 kts | 74° |
| 2026-04-16 21:26 | -23.45477 | -46.55939 | 3811 ft | 150 kts | 75° |
| 2026-04-16 21:27 | -23.45184 | -46.54847 | 3638 ft | 149 kts | 75° |
| 2026-04-16 21:27 | -23.44892 | -46.53760 | 3460 ft | 149 kts | 75° |
| 2026-04-16 21:27 | -23.44605 | -46.52697 | 3279 ft | 148 kts | 75° |
| 2026-04-16 21:27 | -23.44313 | -46.51614 | 3093 ft | 147 kts | 75° |
| 2026-04-16 21:28 | -23.44026 | -46.50555 | 2914 ft | 147 kts | 74° |
| 2026-04-16 21:28 | -23.43739 | -46.49482 | 2722 ft | 146 kts | 74° |
| 2026-04-16 21:28 | -23.43453 | -46.48420 | 2537 ft | 145 kts | 75° |
| 2026-04-16 21:28 | -23.43173 | -46.47384 | 2488 ft | 150 kts | 74° |
| 2026-04-16 21:29 | -23.42834 | -46.46171 | 2908 ft | 180 kts | 74° |
| 2026-04-16 21:29 | -23.42479 | -46.44931 | 3858 ft | 174 kts | 73° |
| 2026-04-16 21:29 | -23.42118 | -46.43654 | 4388 ft | 185 kts | 73° |
| 2026-04-16 21:29 | -23.41734 | -46.42252 | 4840 ft | 202 kts | 73° |
| 2026-04-16 21:30 | -23.41323 | -46.40720 | 5274 ft | 222 kts | 73° |
| 2026-04-16 21:30 | -23.40717 | -46.39115 | 5708 ft | 231 kts | 53° |
| 2026-04-16 21:30 | -23.39511 | -46.38018 | 5978 ft | 228 kts | 21° |
| 2026-04-16 21:30 | -23.37956 | -46.37765 | 6017 ft | 225 kts | 353° |
| 2026-04-16 21:31 | -23.36414 | -46.38099 | 6024 ft | 225 kts | 345° |
| 2026-04-16 21:31 | -23.34992 | -46.38781 | 6005 ft | 224 kts | 316° |
| 2026-04-16 21:31 | -23.34238 | -46.40299 | 6025 ft | 245 kts | 278° |
| 2026-04-16 21:31 | -23.34455 | -46.42228 | 6038 ft | 270 kts | 251° |
| 2026-04-16 21:32 | -23.34990 | -46.43749 | 6032 ft | 274 kts | 251° |
| 2026-04-16 21:32 | -23.35127 | -46.44162 | 6031 ft | 275 kts | 251° |
| 2026-04-16 21:32 | -23.35298 | -46.44694 | 6030 ft | 275 kts | 252° |
| 2026-04-16 21:33 | -23.35811 | -46.46368 | 6026 ft | 275 kts | 253° |
| 2026-04-16 21:33 | -23.36369 | -46.48261 | 6021 ft | 275 kts | 253° |
| 2026-04-16 21:33 | -23.36943 | -46.50256 | 6019 ft | 276 kts | 254° |
| 2026-04-16 21:33 | -23.37505 | -46.52222 | 6016 ft | 276 kts | 254° |
| 2026-04-16 21:34 | -23.38077 | -46.54228 | 6015 ft | 276 kts | 254° |
| 2026-04-16 21:34 | -23.38644 | -46.56220 | 6006 ft | 267 kts | 254° |
| 2026-04-16 21:34 | -23.39178 | -46.58093 | 6004 ft | 251 kts | 254° |
| 2026-04-16 21:34 | -23.39673 | -46.59834 | 5995 ft | 237 kts | 254° |
| 2026-04-16 21:35 | -23.40147 | -46.61501 | 5991 ft | 222 kts | 254° |
| 2026-04-16 21:35 | -23.40590 | -46.63054 | 6019 ft | 205 kts | 254° |
| 2026-04-16 21:35 | -23.40989 | -46.64457 | 6041 ft | 185 kts | 255° |
| 2026-04-16 21:35 | -23.41353 | -46.65740 | 5995 ft | 169 kts | 254° |
| 2026-04-16 21:36 | -23.41685 | -46.66910 | 5978 ft | 158 kts | 254° |
| 2026-04-16 21:36 | -23.42215 | -46.67945 | 5973 ft | 160 kts | 220° |
| 2026-04-16 21:36 | -23.43243 | -46.68360 | 5992 ft | 163 kts | 179° |
| 2026-04-16 21:36 | -23.44301 | -46.67961 | 6001 ft | 164 kts | 139° |
| 2026-04-16 21:37 | -23.44657 | -46.67548 | 6011 ft | 163 kts | 126° |
| 2026-04-16 21:37 | -23.45126 | -46.66805 | 5949 ft | 159 kts | 122° |
| 2026-04-16 21:37 | -23.45640 | -46.65931 | 5698 ft | 160 kts | 122° |
| 2026-04-16 21:37 | -23.46271 | -46.64864 | 5397 ft | 161 kts | 123° |
| 2026-04-16 21:38 | -23.46883 | -46.63854 | 5190 ft | 158 kts | 124° |
| 2026-04-16 21:38 | -23.47247 | -46.62760 | 4989 ft | 158 kts | 89° |
| 2026-04-16 21:38 | -23.47068 | -46.61572 | 4814 ft | 158 kts | 75° |
| 2026-04-16 21:38 | -23.46749 | -46.60443 | 4624 ft | 157 kts | 72° |
| 2026-04-16 21:39 | -23.46414 | -46.59320 | 4450 ft | 154 kts | 73° |
| 2026-04-16 21:39 | -23.46096 | -46.58213 | 4249 ft | 150 kts | 74° |
| 2026-04-16 21:39 | -23.45798 | -46.57130 | 4057 ft | 149 kts | 75° |
| 2026-04-16 21:39 | -23.45505 | -46.56043 | 3865 ft | 149 kts | 75° |
| 2026-04-16 21:40 | -23.45216 | -46.54969 | 3675 ft | 148 kts | 76° |
| 2026-04-16 21:40 | -23.44930 | -46.53906 | 3484 ft | 146 kts | 76° |
| 2026-04-16 21:40 | -23.44635 | -46.52835 | 3283 ft | 147 kts | 75° |
| 2026-04-16 21:40 | -23.44351 | -46.51783 | 3095 ft | 146 kts | 77° |
| 2026-04-16 21:41 | -23.44074 | -46.50719 | 2910 ft | 145 kts | 76° |
| 2026-04-16 21:41 | -23.43791 | -46.49670 | 2732 ft | 144 kts | 77° |
| 2026-04-16 21:41 | -23.43512 | -46.48628 | 2577 ft | 144 kts | 76° |
| 2026-04-16 21:41 | -23.43229 | -46.47585 | 2470 ft | 136 kts | 76° |
| 2026-04-16 21:42 | -23.43009 | -46.46773 | 2469 ft | 88 kts | 74° |
| 2026-04-16 21:42 | -23.42884 | -46.46313 | 2470 ft | 35 kts | 74° |
| 2026-04-16 21:42 | -23.42799 | -46.46194 | 2470 ft | 19 kts | 359° |
| 2026-04-16 21:42 | -23.42669 | -46.46230 | 2470 ft | 19 kts | 344° |
| 2026-04-16 21:43 | -23.42633 | -46.46341 | 2470 ft | 18 kts | 252° |
| 2026-04-16 21:43 | -23.42671 | -46.46479 | 2470 ft | 19 kts | 253° |
| 2026-04-16 21:43 | -23.42709 | -46.46621 | 2470 ft | 20 kts | 253° |
| 2026-04-16 21:43 | -23.42753 | -46.46783 | 2469 ft | 23 kts | 254° |
| 2026-04-16 21:44 | -23.42803 | -46.46968 | 2469 ft | 26 kts | 254° |
| 2026-04-16 21:44 | -23.42856 | -46.47163 | 2469 ft | 26 kts | 254° |
| 2026-04-16 21:44 | -23.42908 | -46.47356 | 2469 ft | 26 kts | 253° |
| 2026-04-16 21:44 | -23.42958 | -46.47541 | 2469 ft | 24 kts | 254° |
| 2026-04-16 21:45 | -23.43004 | -46.47711 | 2469 ft | 22 kts | 254° |
| 2026-04-16 21:45 | -23.43047 | -46.47870 | 2468 ft | 21 kts | 254° |
| 2026-04-16 21:45 | -23.43086 | -46.48018 | 2468 ft | 17 kts | 254° |
| 2026-04-16 21:45 | -23.43084 | -46.48119 | 2468 ft | 13 kts | 323° |
| 2026-04-16 21:46 | -23.42990 | -46.48138 | 2468 ft | 13 kts | 355° |
| 2026-04-16 21:46 | -23.42896 | -46.48147 | 2468 ft | 13 kts | 354° |
| 2026-04-16 21:46 | -23.42821 | -46.48158 | 2469 ft | 8 kts | 328° |
| 2026-04-16 21:46 | -23.42809 | -46.48217 | 2469 ft | 6 kts | 266° |
| 2026-04-16 21:47 | -23.42811 | -46.48244 | 2469 ft | 0 kts | 266° |